Time;durP1;ratioP1;P1;durP2;ratioP2;P2;SDS_P1;SDS_P2;PMS_P1;PMS_P2;Temp;Humidity;BMP_temperature;BMP_pressure;BME280_temperature;BME280_humidity;BME280_pressure;Samples;Min_cycle;Max_cycle;Signal;HPM_P1;HPM_P2
2022/08/10 00:01:57;;;;;;;6.40;1.83;;;;;;;19.49;39.98;101569.69;10457090;28;20191;-80
2022/08/10 00:07:19;;;;;;;3.53;1.05;;;;;;;19.53;39.96;101570.59;10456281;28;20221;-81
2022/08/10 00:12:42;;;;;;;5.68;1.10;;;;;;;19.58;39.87;101573.22;10449577;28;20632;-81
2022/08/10 00:18:04;;;;;;;3.65;1.55;;;;;;;19.56;39.93;101558.47;10461243;28;20188;-81
2022/08/10 00:23:26;;;;;;;1.23;1.10;;;;;;;19.70;39.63;101561.69;10456089;28;20266;-80
2022/08/10 00:28:48;;;;;;;4.30;1.52;;;;;;;19.51;40.55;101555.88;10472191;28;20191;-80
2022/08/10 00:34:10;;;;;;;2.78;1.15;;;;;;;19.52;40.43;101556.69;10483588;28;20212;-81
2022/08/10 00:39:32;;;;;;;4.00;1.45;;;;;;;19.51;40.54;101555.88;10461134;28;20200;-81
2022/08/10 00:44:55;;;;;;;1.33;1.00;;;;;;;19.49;40.10;101549.69;10445250;28;20285;-80
2022/08/10 00:50:17;;;;;;;3.40;1.25;;;;;;;19.55;40.20;101556.75;10447657;28;20196;-81
2022/08/10 00:55:40;;;;;;;4.38;1.20;;;;;;;19.33;40.73;101560.25;10444151;28;20265;-80
2022/08/10 01:01:02;;;;;;;2.15;1.08;;;;;;;19.08;41.60;101548.13;10449685;28;20188;-81
2022/08/10 01:06:31;;;;;;;3.17;1.30;;;;;;;18.64;42.78;101555.75;10440070;28;20269;-81
2022/08/10 01:11:59;;;;;;;2.97;1.20;;;;;;;18.59;42.99;101551.16;10438605;28;20208;-81
2022/08/10 01:17:32;;;;;;;1.98;1.45;;;;;;;18.76;42.48;101541.44;10443776;28;20222;-81
2022/08/10 01:22:55;;;;;;;2.53;1.30;;;;;;;18.70;42.97;101548.63;10446461;28;20195;-80
2022/08/10 01:28:33;;;;;;;4.78;1.55;;;;;;;18.58;43.12;101542.94;10444068;28;20203;-80
2022/08/10 01:34:04;;;;;;;4.28;1.40;;;;;;;18.53;43.35;101543.19;10441019;28;20227;-81
2022/08/10 01:39:32;;;;;;;4.20;1.50;;;;;;;18.49;43.62;101539.38;10441010;28;20200;-80
2022/08/10 01:44:55;;;;;;;3.92;1.58;;;;;;;18.43;43.90;101533.09;10447934;28;20249;-81
2022/08/10 01:50:25;;;;;;;2.00;1.45;;;;;;;18.14;44.60;101519.91;10449417;28;20532;-80
2022/08/10 01:55:49;;;;;;;2.67;1.60;;;;;;;18.48;43.73;101532.03;10447250;28;20254;-80
2022/08/10 02:01:14;;;;;;;4.43;1.73;;;;;;;18.20;44.52;101529.09;10455549;28;20589;-81
2022/08/10 02:06:42;;;;;;;3.33;1.60;;;;;;;18.20;45.05;101529.09;10460500;28;20219;-80
2022/08/10 02:12:06;;;;;;;2.80;1.63;;;;;;;17.97;45.55;101528.72;10433742;28;20255;-81
2022/08/10 02:17:35;;;;;;;5.00;1.80;;;;;;;18.09;45.56;101533.63;10447944;28;20227;-81
2022/08/10 02:23:03;;;;;;;6.72;1.88;;;;;;;17.92;46.03;101526.13;10429871;28;20196;-81
2022/08/10 02:28:31;;;;;;;2.13;1.70;;;;;;;17.66;46.89;101528.50;10451280;28;20592;-81
2022/08/10 02:33:54;;;;;;;2.00;1.60;;;;;;;17.63;47.21;101532.91;10456478;28;20713;-81
2022/08/10 02:39:17;;;;;;;3.72;1.80;;;;;;;17.56;47.17;101532.63;10468028;28;20478;-80
2022/08/10 02:44:48;;;;;;;4.47;1.92;;;;;;;17.72;46.46;101527.06;10451862;28;20192;-81
2022/08/10 02:50:16;;;;;;;4.18;2.05;;;;;;;17.55;47.28;101537.50;10454462;28;20550;-80
2022/08/10 02:55:44;;;;;;;3.92;1.98;;;;;;;17.30;48.15;101538.66;10423843;28;20200;-80
2022/08/10 03:01:10;;;;;;;5.10;2.47;;;;;;;17.87;46.33;101538.59;10431222;28;20246;-81
2022/08/10 03:06:38;;;;;;;5.40;2.53;;;;;;;17.55;47.35;101539.53;10454275;28;20215;-81
2022/08/10 03:12:01;;;;;;;3.92;2.80;;;;;;;17.68;46.59;101535.53;10447274;28;20215;-83
2022/08/10 03:17:23;;;;;;;7.75;2.63;;;;;;;17.44;47.14;101542.00;10455753;28;20199;-80
2022/08/10 03:22:46;;;;;;;6.15;2.70;;;;;;;17.30;48.04;101540.66;10443832;28;20233;-80
2022/08/10 03:28:09;;;;;;;4.32;2.78;;;;;;;17.10;48.29;101548.06;10452451;28;20585;-80
2022/08/10 03:33:36;;;;;;;6.03;2.92;;;;;;;17.22;48.13;101539.56;10422239;28;20517;-80
2022/08/10 03:38:58;;;;;;;4.00;3.25;;;;;;;17.04;48.43;101549.50;10454386;28;20222;-80
2022/08/10 03:44:23;;;;;;;5.57;3.53;;;;;;;17.17;48.07;101545.50;10456711;28;20214;-80
2022/08/10 03:49:47;;;;;;;6.55;3.55;;;;;;;17.22;48.38;101536.72;10426850;28;20253;-80
2022/08/10 03:55:10;;;;;;;6.67;4.17;;;;;;;17.20;47.97;101536.22;10455486;28;20223;-80
2022/08/10 04:00:34;;;;;;;6.30;3.80;;;;;;;16.93;48.48;101541.34;10449401;28;20200;-80
2022/08/10 04:05:56;;;;;;;10.07;4.57;;;;;;;16.97;48.12;101526.44;10432385;28;20602;-80
2022/08/10 04:11:19;;;;;;;6.25;3.67;;;;;;;16.84;48.31;101534.88;10438782;28;20220;-80
2022/08/10 04:16:41;;;;;;;7.00;4.00;;;;;;;17.16;47.19;101532.44;10421937;28;20699;-80
2022/08/10 04:22:07;;;;;;;6.03;3.72;;;;;;;17.14;47.37;101520.56;10463093;28;20204;-79
2022/08/10 04:27:30;;;;;;;6.53;4.25;;;;;;;17.27;46.76;101520.22;10426153;28;20291;-81
2022/08/10 04:32:54;;;;;;;11.18;5.07;;;;;;;17.48;46.19;101525.00;10431721;28;20266;-80
2022/08/10 04:38:17;;;;;;;9.43;4.50;;;;;;;17.48;46.48;101531.53;10435229;28;20297;-81
2022/08/10 04:43:39;;;;;;;8.73;3.57;;;;;;;17.53;46.20;101528.47;10463924;28;20485;-81
2022/08/10 04:49:01;;;;;;;8.18;4.32;;;;;;;17.39;46.56;101529.97;10450658;28;20222;-80
2022/08/10 04:54:24;;;;;;;7.17;4.10;;;;;;;17.39;46.68;101522.28;10454891;28;20302;-81
2022/08/10 04:59:47;;;;;;;8.07;4.60;;;;;;;17.38;46.41;101531.16;10439465;28;20658;-89
2022/08/10 05:05:10;;;;;;;4.07;3.17;;;;;;;17.19;46.82;101526.84;10457544;28;20200;-86
2022/08/10 05:10:32;;;;;;;8.63;3.92;;;;;;;17.59;46.24;101527.03;10446040;28;20219;-86
2022/08/10 05:15:55;;;;;;;4.78;3.38;;;;;;;17.40;47.09;101540.19;10453445;28;20231;-87
2022/08/10 05:21:17;;;;;;;7.57;3.30;;;;;;;17.47;46.37;101535.56;10455987;28;20584;-87
2022/08/10 05:26:40;;;;;;;6.97;3.72;;;;;;;17.44;46.35;101541.16;10457969;28;20199;-86
2022/08/10 05:32:03;;;;;;;8.70;3.67;;;;;;;17.78;45.26;101532.19;10449909;28;20230;-87
2022/08/10 05:37:28;;;;;;;4.22;3.70;;;;;;;18.01;44.70;101532.53;10429045;28;20200;-81
2022/08/10 05:42:50;;;;;;;6.65;4.00;;;;;;;17.76;45.11;101537.41;10439929;28;20273;-84
2022/08/10 05:48:13;;;;;;;7.18;4.68;;;;;;;18.14;43.95;101537.03;10451190;28;20273;-84
2022/08/10 05:53:37;;;;;;;6.45;4.45;;;;;;;18.09;44.30;101534.47;10443736;28;20340;-88
2022/08/10 05:59:00;;;;;;;6.72;3.70;;;;;;;18.01;42.63;101534.56;10449271;28;20227;-85
2022/08/10 06:04:26;;;;;;;10.25;4.07;;;;;;;18.00;43.28;101542.28;10445356;28;20191;-83
2022/08/10 06:09:49;;;;;;;6.40;3.75;;;;;;;18.18;43.01;101538.00;10437570;28;20272;-92
2022/08/10 06:15:11;;;;;;;9.57;4.32;;;;;;;18.45;42.23;101547.03;10449859;28;20317;-89
2022/08/10 06:20:35;;;;;;;6.95;3.70;;;;;;;18.52;42.06;101550.09;10447932;28;20203;-89
2022/08/10 06:25:58;;;;;;;6.43;3.83;;;;;;;18.33;42.34;101554.41;10445723;28;20196;-81
2022/08/10 06:31:20;;;;;;;6.10;4.17;;;;;;;18.68;41.58;101559.56;10440062;28;20227;-86
2022/08/10 06:36:44;;;;;;;9.02;4.47;;;;;;;18.86;40.82;101562.97;10433356;28;20301;-90
2022/08/10 06:42:27;;;;;;;7.30;3.92;;;;;;;18.58;41.74;101558.06;10449871;28;20227;-86
2022/08/10 06:48:02;;;;;;;5.10;3.58;;;;;;;18.67;40.93;101555.03;10454959;28;20249;-89
2022/08/10 06:53:29;;;;;;;6.13;3.55;;;;;;;18.91;40.16;101560.66;10459453;28;20203;-91
2022/08/10 06:59:16;;;;;;;5.82;2.70;;;;;;;19.23;39.85;101555.06;10456861;28;20230;-90
2022/08/10 07:04:44;;;;;;;3.83;3.00;;;;;;;19.24;39.90;101546.13;10446085;28;20250;-90
2022/08/10 07:10:08;;;;;;;5.82;2.85;;;;;;;19.31;40.49;101556.91;10460647;28;20231;-79
2022/08/10 07:15:31;;;;;;;6.60;1.95;;;;;;;19.89;39.29;101546.66;10461886;28;20245;-88
2022/08/10 07:20:54;;;;;;;4.35;2.47;;;;;;;19.85;38.86;101547.75;10460105;28;20219;-86
2022/08/10 07:26:18;;;;;;;2.88;2.30;;;;;;;19.62;39.38;101556.16;10445895;28;20309;-88
2022/08/10 07:31:41;;;;;;;5.05;2.53;;;;;;;19.80;38.97;101550.88;10455476;28;20192;-90
2022/08/10 07:37:05;;;;;;;5.65;2.08;;;;;;;20.10;38.18;101552.06;10458298;28;20485;-90
2022/08/10 07:42:28;;;;;;;3.20;2.33;;;;;;;20.13;38.33;101559.09;10451309;28;20203;-85
2022/08/10 07:48:00;;;;;;;6.43;2.10;;;;;;;20.33;37.54;101555.94;10461200;28;20226;-88
2022/08/10 07:53:26;;;;;;;4.65;2.30;;;;;;;20.81;36.43;101559.50;10454559;28;20243;-77
2022/08/10 07:58:54;;;;;;;4.70;2.13;;;;;;;20.66;37.94;101563.22;10450336;28;20203;-86
2022/08/10 08:04:21;;;;;;;4.30;2.20;;;;;;;20.75;36.81;101560.97;10440149;28;20273;-87
2022/08/10 08:09:44;;;;;;;3.35;2.28;;;;;;;21.30;34.32;101556.81;10445690;28;20297;-85
2022/08/10 08:15:08;;;;;;;5.55;2.17;;;;;;;21.53;34.14;101564.63;10439711;28;20223;-85
2022/08/10 08:20:31;;;;;;;3.53;2.13;;;;;;;22.08;33.58;101554.56;10457494;28;20204;-86
2022/08/10 08:25:53;;;;;;;4.47;2.22;;;;;;;22.29;33.44;101551.19;10436247;28;20285;-85
2022/08/10 08:31:17;;;;;;;6.07;2.17;;;;;;;23.07;31.54;101544.47;10428220;28;20249;-84
2022/08/10 08:36:39;;;;;;;3.33;1.88;;;;;;;22.32;33.39;101544.69;10439328;28;20623;-82
2022/08/10 08:42:39;;;;;;;7.10;2.08;;;;;;;22.52;31.84;101549.88;10427162;28;20289;-82
2022/08/10 08:48:04;;;;;;;3.95;2.60;;;;;;;22.76;31.84;101544.94;10431010;28;20235;-82
2022/08/10 08:53:54;;;;;;;4.35;1.98;;;;;;;23.17;30.99;101532.28;10434750;28;20227;-83
2022/08/10 08:59:55;;;;;;;4.20;2.08;;;;;;;23.29;31.65;101527.50;10440211;28;20269;-83
2022/08/10 09:05:39;;;;;;;4.13;1.80;;;;;;;23.29;31.62;101528.31;10427096;28;20255;-82
2022/08/10 09:11:18;;;;;;;4.78;2.00;;;;;;;22.84;30.25;101521.63;10452769;28;20227;-78
2022/08/10 09:16:49;;;;;;;5.82;2.50;;;;;;;23.32;30.90;101518.06;10449894;28;20560;-84
2022/08/10 09:22:41;;;;;;;6.63;2.60;;;;;;;24.00;29.39;101508.00;10435092;28;20666;-85
2022/08/10 09:28:05;;;;;;;8.27;2.42;;;;;;;24.27;29.70;101506.59;10444286;28;20593;-86
2022/08/10 09:33:37;;;;;;;6.50;1.92;;;;;;;24.30;28.96;101494.25;10448742;28;20246;-86
2022/08/10 09:39:22;;;;;;;5.35;2.10;;;;;;;24.59;28.99;101498.91;10449419;28;20195;-86
2022/08/10 09:45:01;;;;;;;5.43;2.10;;;;;;;24.42;29.02;101495.97;10443611;28;20200;-85
2022/08/10 09:50:36;;;;;;;5.03;2.13;;;;;;;24.57;28.91;101480.41;10439146;28;20200;-84
2022/08/10 09:56:31;;;;;;;2.53;1.95;;;;;;;24.82;27.57;101486.28;10461429;28;20269;-87
2022/08/10 10:02:17;;;;;;;4.47;2.13;;;;;;;24.83;26.64;101468.59;10430396;28;20625;-86
2022/08/10 10:07:45;;;;;;;4.35;2.13;;;;;;;25.32;26.69;101470.78;10441525;28;20513;-86
2022/08/10 10:13:10;;;;;;;4.50;2.10;;;;;;;25.33;26.86;101469.53;10451447;28;20274;-87
2022/08/10 10:19:04;;;;;;;3.53;1.98;;;;;;;25.77;26.33;101451.00;10453386;28;20492;-87
2022/08/10 10:24:53;;;;;;;2.60;1.45;;;;;;;25.41;26.51;101443.56;10461348;28;20195;-86
2022/08/10 10:30:16;;;;;;;2.78;1.67;;;;;;;25.63;24.98;101433.66;10452743;28;20262;-84
2022/08/10 10:35:52;;;;;;;3.50;1.52;;;;;;;25.87;25.86;101432.84;10450051;28;20227;-85
2022/08/10 10:41:23;;;;;;;2.60;1.65;;;;;;;26.50;24.43;101425.22;10435739;28;20200;-84
2022/08/10 10:47:23;;;;;;;2.70;1.67;;;;;;;26.70;24.91;101426.34;10446018;28;20847;-84
2022/08/10 10:52:48;;;;;;;3.17;2.10;;;;;;;26.23;23.83;101424.06;10450667;28;20277;-85
2022/08/10 10:58:26;;;;;;;3.60;1.63;;;;;;;26.65;23.05;101421.03;10447191;28;20329;-86
2022/08/10 11:03:55;;;;;;;6.70;1.75;;;;;;;25.95;24.29;101417.13;10431068;28;20222;-88
2022/08/10 11:09:28;;;;;;;2.72;1.55;;;;;;;26.64;23.02;101402.03;10454018;28;20281;-83
2022/08/10 11:15:19;;;;;;;3.78;1.52;;;;;;;26.48;23.47;101403.75;10431458;28;20690;-79
2022/08/10 11:20:46;;;;;;;3.65;2.20;;;;;;;26.92;22.49;101397.34;10437825;28;20224;-84
2022/08/10 11:26:14;;;;;;;2.45;1.33;;;;;;;27.13;22.16;101388.50;10447598;28;20214;-86
2022/08/10 11:31:48;;;;;;;5.88;1.50;;;;;;;27.02;23.32;101390.66;10440032;28;20196;-85
2022/08/10 11:37:25;;;;;;;5.00;1.83;;;;;;;27.09;22.23;101376.13;10437888;28;20730;-85
2022/08/10 11:42:58;;;;;;;2.67;1.60;;;;;;;27.53;22.67;101374.53;10431081;28;20601;-85
2022/08/10 11:48:25;;;;;;;2.65;1.80;;;;;;;27.72;22.52;101362.31;10441046;28;20321;-85
2022/08/10 11:53:53;;;;;;;4.18;1.08;;;;;;;27.49;21.26;101359.25;10444239;28;20251;-85
2022/08/10 12:05:11;;;;;;;5.22;1.30;;;;;;;27.90;22.40;101360.09;10447710;28;20196;-83
2022/08/10 12:10:33;;;;;;;4.78;1.10;;;;;;;27.29;21.16;101356.97;10441126;28;20227;-83
2022/08/10 12:16:06;;;;;;;4.45;1.52;;;;;;;27.69;21.68;101348.72;10441396;28;20274;-85
2022/08/10 12:21:39;;;;;;;4.10;1.50;;;;;;;28.11;21.56;101345.31;10424421;28;20223;-83
2022/08/10 12:27:11;;;;;;;1.65;1.10;;;;;;;27.27;21.04;101358.66;10415357;28;20274;-83
2022/08/10 12:32:52;;;;;;;3.00;1.50;;;;;;;28.04;21.92;101344.59;10425908;28;20296;-84
2022/08/10 12:38:52;;;;;;;6.45;1.60;;;;;;;28.01;20.74;101340.50;10435896;28;20285;-84
2022/08/10 12:44:21;;;;;;;1.42;1.23;;;;;;;27.90;20.33;101334.00;10429188;28;20279;-83
2022/08/10 12:49:52;;;;;;;1.95;1.70;;;;;;;28.24;20.42;101322.41;10428365;28;20249;-79
2022/08/10 12:55:17;;;;;;;3.42;1.40;;;;;;;28.53;18.67;101319.94;10441276;28;20243;-80
2022/08/10 13:00:42;;;;;;;3.85;1.23;;;;;;;29.08;19.45;101310.78;10431483;28;20817;-83
2022/08/10 13:06:05;;;;;;;2.53;1.13;;;;;;;28.22;19.31;101300.91;10429745;28;20211;-83
2022/08/10 13:11:29;;;;;;;1.10;1.00;;;;;;;28.50;19.95;101291.78;10406475;28;20291;-82
2022/08/10 13:16:55;;;;;;;7.40;2.90;;;;;;;28.55;19.66;101293.41;10438901;28;20238;-82
2022/08/10 13:22:19;;;;;;;3.55;0.90;;;;;;;28.51;19.19;101281.84;10451512;28;20218;-84
2022/08/10 13:27:41;;;;;;;1.00;0.90;;;;;;;29.29;19.58;101268.94;10421295;28;20250;-78
2022/08/10 13:33:06;;;;;;;1.67;1.05;;;;;;;29.04;19.38;101274.38;10487195;28;20304;-83
2022/08/10 13:38:29;;;;;;;2.15;0.90;;;;;;;28.44;19.79;101273.25;10478336;28;20230;-83
2022/08/10 13:43:55;;;;;;;0.63;0.60;;;;;;;28.35;19.44;101273.81;10486085;28;20230;-82
2022/08/10 13:49:20;;;;;;;2.22;1.42;;;;;;;28.33;20.87;101273.44;10482429;28;20288;-80
2022/08/10 13:54:44;;;;;;;0.88;0.80;;;;;;;28.21;20.10;101253.69;10487388;28;20619;-78
2022/08/10 14:00:08;;;;;;;1.20;0.70;;;;;;;28.44;19.63;101261.66;10479510;28;20222;-78
2022/08/10 14:05:33;;;;;;;1.63;1.00;;;;;;;28.04;19.63;101255.59;10469544;28;20231;-78
2022/08/10 14:11:00;;;;;;;2.90;1.05;;;;;;;28.83;19.14;101240.75;10479766;28;20259;-80
2022/08/10 14:16:23;;;;;;;4.82;0.90;;;;;;;28.77;20.00;101239.59;10486742;28;20238;-81
2022/08/10 14:21:45;;;;;;;4.03;1.00;;;;;;;28.78;19.20;101239.16;10499821;28;20195;-78
2022/08/10 14:27:10;;;;;;;2.28;1.00;;;;;;;28.66;19.66;101233.94;10498249;28;20227;-81
2022/08/10 14:32:44;;;;;;;1.27;0.95;;;;;;;28.87;20.10;101229.09;10501575;28;20249;-78
2022/08/10 14:38:12;;;;;;;2.17;0.70;;;;;;;28.55;19.02;101227.50;10491475;28;20609;-78
2022/08/10 14:43:38;;;;;;;4.22;0.70;;;;;;;28.98;19.52;101218.91;10498591;28;20256;-79
2022/08/10 14:49:01;;;;;;;2.33;0.80;;;;;;;28.91;18.78;101218.22;10485007;28;20544;-78
2022/08/10 14:54:26;;;;;;;1.35;0.80;;;;;;;28.17;20.08;101227.66;10480105;28;20250;-78
2022/08/10 14:59:48;;;;;;;1.52;0.90;;;;;;;28.41;19.33;101207.44;10502459;28;20281;-79
2022/08/10 15:05:13;;;;;;;2.35;0.70;;;;;;;28.06;19.77;101209.59;10459467;28;20255;-83
2022/08/10 15:10:36;;;;;;;0.93;0.60;;;;;;;29.04;19.53;101199.72;10459918;28;20222;-83
2022/08/10 15:16:02;;;;;;;2.13;0.70;;;;;;;28.40;19.60;101200.00;10486321;28;20246;-83
2022/08/10 15:21:27;;;;;;;1.48;0.68;;;;;;;28.36;19.81;101193.41;10501339;28;20187;-78
2022/08/10 15:26:49;;;;;;;1.60;0.70;;;;;;;28.33;19.53;101197.22;10499616;28;20195;-82
2022/08/10 15:38:00;;;;;;;1.70;0.98;;;;;;;27.35;19.47;101189.41;10481396;28;20276;-83
2022/08/10 15:43:27;;;;;;;1.27;0.82;;;;;;;28.20;19.04;101190.34;10474600;28;20203;-81
2022/08/10 15:48:58;;;;;;;11.52;1.90;;;;;;;28.03;19.39;101187.28;10494672;28;20191;-83
2022/08/10 15:54:28;;;;;;;1.92;0.85;;;;;;;27.70;20.15;101191.88;10487452;28;20320;-78
2022/08/10 16:00:05;;;;;;;1.90;0.60;;;;;;;28.09;19.66;101179.72;10499485;28;20264;-82
2022/08/10 16:05:33;;;;;;;0.77;0.60;;;;;;;27.88;19.85;101179.22;10483269;28;20257;-79
2022/08/10 16:11:04;;;;;;;2.38;1.73;;;;;;;28.32;18.75;101176.09;10493713;28;20226;-81
2022/08/10 16:16:35;;;;;;;1.63;0.65;;;;;;;27.98;19.18;101181.97;10506141;28;20213;-79
2022/08/10 16:22:03;;;;;;;1.77;0.77;;;;;;;27.59;19.41;101178.75;10484925;28;20276;-82
2022/08/10 16:27:27;;;;;;;1.70;0.93;;;;;;;27.77;19.54;101174.41;10490982;28;20184;-77
2022/08/10 16:32:51;;;;;;;4.22;0.93;;;;;;;27.51;20.40;101171.44;10470537;28;20551;-82
2022/08/10 16:38:14;;;;;;;0.93;0.88;;;;;;;27.42;20.40;101167.00;10455143;28;20309;-81
2022/08/10 16:43:37;;;;;;;3.33;0.98;;;;;;;27.77;21.05;101167.78;10461165;28;21064;-81
2022/08/10 16:49:00;;;;;;;1.15;0.82;;;;;;;27.85;20.34;101169.31;10462389;28;20230;-78
2022/08/10 16:54:25;;;;;;;1.88;1.05;;;;;;;27.51;20.35;101168.53;10483443;28;20249;-84
2022/08/10 16:59:48;;;;;;;1.08;1.05;;;;;;;27.44;20.65;101163.66;10471306;28;20222;-82
2022/08/10 17:05:11;;;;;;;2.65;1.58;;;;;;;27.05;20.60;101167.81;10487079;28;20226;-79
2022/08/10 17:10:34;;;;;;;3.40;1.10;;;;;;;26.98;21.42;101156.31;10472568;28;20265;-83
2022/08/10 17:16:02;;;;;;;1.60;1.13;;;;;;;27.31;20.39;101157.63;10460947;28;21208;-82
2022/08/10 17:21:28;;;;;;;1.20;1.08;;;;;;;26.52;22.28;101148.06;10459318;28;20231;-82
2022/08/10 17:26:50;;;;;;;2.63;1.20;;;;;;;27.07;22.06;101141.31;10455774;28;20245;-81
2022/08/10 17:32:34;;;;;;;2.60;0.93;;;;;;;26.45;21.43;101142.34;10453828;28;20270;-81
2022/08/10 17:38:01;;;;;;;1.80;0.93;;;;;;;26.11;22.62;101141.38;10437517;28;20288;-78
2022/08/10 17:43:24;;;;;;;4.05;1.15;;;;;;;26.30;23.16;101144.53;10455357;28;20223;-81
2022/08/10 17:48:47;;;;;;;2.40;1.23;;;;;;;25.85;23.37;101134.94;10461221;28;20223;-82
2022/08/10 17:54:43;;;;;;;3.20;1.10;;;;;;;26.50;22.07;101141.91;10448272;28;20236;-83
2022/08/10 18:00:11;;;;;;;1.42;1.33;;;;;;;26.66;21.78;101139.28;10450082;28;20239;-81
2022/08/10 18:05:33;;;;;;;1.85;1.40;;;;;;;25.89;22.36;101138.59;10441609;28;20654;-82
2022/08/10 18:10:57;;;;;;;4.93;0.88;;;;;;;26.71;22.30;101135.91;10454887;28;20255;-81
2022/08/10 18:16:24;;;;;;;2.65;1.20;;;;;;;25.71;23.02;101137.88;10499781;28;20272;-83
2022/08/10 18:21:47;;;;;;;3.45;1.45;;;;;;;25.98;22.65;101138.97;10504135;28;20280;-83
2022/08/10 18:27:12;;;;;;;1.73;1.30;;;;;;;25.65;23.03;101148.22;10502065;28;20222;-78
2022/08/10 18:32:35;;;;;;;2.28;1.48;;;;;;;25.75;22.86;101153.13;10504943;28;20606;-77
2022/08/10 18:38:00;;;;;;;2.45;1.73;;;;;;;25.54;23.20;101156.94;10474165;28;20255;-81
2022/08/10 18:43:25;;;;;;;1.55;1.45;;;;;;;25.71;23.65;101158.09;10459421;28;20231;-78
2022/08/10 18:48:51;;;;;;;6.95;1.77;;;;;;;25.33;23.68;101165.69;10450210;28;20277;-77
2022/08/10 18:54:24;;;;;;;5.95;2.10;;;;;;;25.43;24.03;101164.00;10487412;28;20679;-79
2022/08/10 19:00:10;;;;;;;1.63;1.52;;;;;;;24.66;25.45;101167.44;10483646;28;20191;-78
2022/08/10 19:05:56;;;;;;;2.92;1.80;;;;;;;25.99;24.18;101162.91;10476081;28;20259;-81
2022/08/10 19:11:30;;;;;;;2.45;1.83;;;;;;;25.91;24.09;101173.66;10503397;28;20254;-78
2022/08/10 19:17:15;;;;;;;6.32;1.25;;;;;;;26.02;24.36;101180.19;10502146;28;20237;-84
2022/08/10 19:22:46;;;;;;;2.92;1.27;;;;;;;24.62;26.05;101183.06;10487058;28;20273;-80
2022/08/10 19:28:15;;;;;;;10.43;1.40;;;;;;;24.76;26.10;101180.22;10508543;28;20192;-81
2022/08/10 19:33:55;;;;;;;1.83;1.30;;;;;;;25.43;25.48;101187.09;10492142;28;20195;-83
2022/08/10 19:39:35;;;;;;;5.78;1.50;;;;;;;24.24;27.04;101190.47;10483058;28;20279;-82
2022/08/10 19:45:07;;;;;;;2.03;1.58;;;;;;;23.98;27.91;101187.91;10515128;28;20248;-82
2022/08/10 19:50:39;;;;;;;2.95;1.38;;;;;;;24.55;26.80;101188.84;10499180;28;20198;-80
2022/08/10 19:56:16;;;;;;;3.22;1.58;;;;;;;24.94;26.06;101194.63;10499118;28;20218;-79
2022/08/10 20:01:38;;;;;;;4.53;1.60;;;;;;;24.61;26.39;101193.78;10496675;28;20195;-79
2022/08/10 20:07:22;;;;;;;2.50;1.40;;;;;;;24.74;26.61;101190.50;10487407;28;20257;-81
2022/08/10 20:12:53;;;;;;;4.30;1.83;;;;;;;24.53;27.41;101185.56;10498754;28;20278;-81
2022/08/10 20:18:23;;;;;;;2.67;1.50;;;;;;;25.29;25.62;101193.72;10508291;28;20214;-81
2022/08/10 20:23:52;;;;;;;4.13;1.65;;;;;;;24.51;26.59;101200.38;10473513;28;20217;-80
2022/08/10 20:29:15;;;;;;;2.78;1.85;;;;;;;25.02;25.99;101190.47;10511960;28;20534;-82
2022/08/10 20:34:47;;;;;;;3.55;1.80;;;;;;;24.37;27.08;101194.59;10498344;28;20690;-82
2022/08/10 20:40:18;;;;;;;3.13;1.90;;;;;;;24.38;27.25;101193.38;10486762;28;20207;-83
2022/08/10 20:45:57;;;;;;;7.25;2.10;;;;;;;24.31;26.67;101196.25;10506093;28;20199;-81
2022/08/10 20:51:36;;;;;;;5.10;2.03;;;;;;;24.59;27.38;101196.25;10486159;28;20233;-83
2022/08/10 20:57:22;;;;;;;5.78;2.90;;;;;;;24.42;27.00;101196.25;10518652;28;20210;-82
2022/08/10 21:02:56;;;;;;;4.78;3.78;;;;;;;23.83;27.94;101204.34;10499314;28;20530;-82
2022/08/10 21:08:40;;;;;;;9.25;4.82;;;;;;;23.02;28.50;101205.53;10484266;28;20329;-81
2022/08/10 21:14:39;;;;;;;9.38;4.25;;;;;;;22.84;29.49;101210.34;10453609;28;20233;-82
2022/08/10 21:20:11;;;;;;;7.30;2.65;;;;;;;22.71;29.00;101211.88;10489878;28;20265;-82
2022/08/10 22:53:07;;;;;;;2.55;1.30;;;;;;;22.88;29.24;101188.19;10504910;28;20191;-81
2022/08/10 22:58:38;;;;;;;3.20;1.13;;;;;;;22.45;29.16;101195.63;10489628;28;20508;-82
2022/08/10 23:04:07;;;;;;;3.22;1.58;;;;;;;22.18;29.75;101184.28;10503084;28;20599;-82
2022/08/10 23:09:30;;;;;;;3.72;1.50;;;;;;;21.85;30.73;101188.03;10476654;28;20272;-82
2022/08/10 23:20:37;;;;;;;2.85;1.58;;;;;;;22.02;30.35;101191.50;10502890;28;20599;-82
2022/08/10 23:26:00;;;;;;;2.38;1.75;;;;;;;22.34;30.24;101188.94;10458153;28;20253;-82
2022/08/10 23:31:23;;;;;;;3.65;1.40;;;;;;;22.18;30.25;101177.72;10462456;28;20431;-81
2022/08/10 23:36:47;;;;;;;2.15;1.13;;;;;;;21.98;30.42;101182.03;10499857;28;20229;-81
2022/08/10 23:42:13;;;;;;;3.80;1.65;;;;;;;21.69;31.25;101181.69;10518971;28;20194;-79
2022/08/10 23:47:40;;;;;;;3.38;1.25;;;;;;;22.15;30.34;101175.63;10531174;28;20583;-82
2022/08/10 23:53:03;;;;;;;2.45;1.40;;;;;;;21.65;31.98;101177.09;10503531;28;20222;-82
2022/08/10 23:58:31;;;;;;;1.98;1.33;;;;;;;21.85;31.17;101188.03;10504058;28;20218;-81
